createdAt,value
2022-08-02T00:00:55.516Z,22.80
2022-08-02T00:01:57.733Z,22.70
2022-08-02T00:02:59.490Z,22.70
2022-08-02T00:04:01.376Z,22.70
2022-08-02T00:05:03.357Z,22.70
2022-08-02T00:06:05.237Z,22.70
2022-08-02T00:07:06.909Z,22.70
2022-08-02T00:08:08.598Z,22.70
2022-08-02T00:09:10.377Z,22.70
2022-08-02T00:10:12.888Z,22.60
2022-08-02T00:11:14.553Z,22.60
2022-08-02T00:12:16.480Z,22.60
2022-08-02T00:13:18.155Z,22.60
2022-08-02T00:14:19.997Z,22.60
2022-08-02T00:15:21.896Z,22.60
2022-08-02T00:16:37.279Z,22.70
2022-08-02T00:17:40.090Z,22.60
2022-08-02T00:18:42.030Z,22.70
2022-08-02T00:19:44.309Z,22.70
2022-08-02T00:20:45.968Z,22.80
2022-08-02T00:21:48.096Z,22.80
2022-08-02T00:22:50.049Z,22.90
2022-08-02T00:24:27.728Z,22.90
2022-08-02T00:25:13.636Z,22.90
2022-08-02T00:26:15.414Z,22.90
2022-08-02T00:27:17.060Z,23.00
2022-08-02T00:28:23.176Z,23.00
2022-08-02T00:29:33.233Z,23.00
2022-08-02T00:30:34.910Z,23.00
2022-08-02T00:31:36.621Z,23.00
2022-08-02T00:32:39.517Z,23.00
2022-08-02T00:34:27.748Z,22.90
2022-08-02T00:35:04.854Z,22.90
2022-08-02T00:36:06.832Z,22.90
2022-08-02T00:37:08.511Z,22.90
2022-08-02T00:38:10.345Z,23.10
2022-08-02T00:39:34.064Z,22.90
2022-08-02T00:40:33.729Z,23.10
2022-08-02T00:41:49.055Z,22.90
2022-08-02T00:43:08.093Z,22.90
2022-08-02T00:44:09.835Z,22.90
2022-08-02T00:45:14.587Z,22.90
2022-08-02T00:46:17.713Z,22.90
2022-08-02T00:47:19.984Z,22.80
2022-08-02T00:48:21.780Z,22.80
2022-08-02T00:49:23.667Z,22.80
2022-08-02T00:50:26.962Z,22.80
2022-08-02T00:51:28.665Z,22.80
2022-08-02T00:52:30.419Z,22.90
2022-08-02T00:53:32.543Z,22.80
2022-08-02T00:54:34.279Z,22.80
2022-08-02T00:55:37.338Z,22.80
2022-08-02T00:56:38.992Z,22.80
2022-08-02T00:57:51.166Z,22.80
2022-08-02T00:58:52.833Z,22.80
2022-08-02T00:59:54.463Z,22.80
2022-08-02T01:01:01.091Z,22.80
2022-08-02T01:02:03.119Z,22.80
2022-08-02T01:03:05.065Z,22.80
2022-08-02T01:04:14.221Z,22.80
2022-08-02T01:05:17.603Z,22.80
2022-08-02T01:06:19.384Z,22.80
2022-08-02T01:07:21.127Z,22.80
2022-08-02T01:08:22.888Z,22.80
2022-08-02T01:09:31.632Z,22.90
2022-08-02T01:10:33.434Z,22.90
2022-08-02T01:13:35.654Z,22.90
2022-08-02T01:14:37.686Z,23.00
2022-08-02T01:15:47.654Z,23.00
2022-08-02T01:16:56.503Z,22.90
2022-08-02T01:18:07.258Z,22.90
2022-08-02T01:19:49.390Z,23.00
2022-08-02T01:21:06.188Z,23.00
2022-08-02T01:22:16.276Z,23.00
2022-08-02T01:23:35.470Z,23.10
2022-08-02T01:24:55.623Z,23.10
2022-08-02T01:26:11.995Z,23.10
2022-08-02T01:27:20.360Z,23.10
2022-08-02T01:28:54.448Z,23.10
2022-08-02T01:30:00.484Z,23.10
2022-08-02T01:31:16.290Z,23.10
2022-08-02T01:32:23.337Z,23.10
2022-08-02T01:33:28.400Z,23.10
2022-08-02T01:34:35.946Z,23.10
2022-08-02T01:35:50.533Z,23.10
2022-08-02T01:36:59.183Z,23.10
2022-08-02T01:38:23.465Z,23.10
2022-08-02T01:39:32.395Z,23.00
2022-08-02T01:40:37.669Z,23.00
2022-08-02T01:41:40.362Z,23.00
2022-08-02T01:42:47.039Z,22.90
2022-08-02T01:43:54.045Z,23.00
2022-08-02T01:44:58.194Z,22.90
2022-08-02T01:46:01.245Z,22.90
2022-08-02T01:47:07.626Z,23.00
2022-08-02T01:48:10.560Z,23.00
2022-08-02T01:49:17.652Z,23.00
2022-08-02T01:50:25.466Z,23.00
2022-08-02T01:51:48.002Z,23.00
2022-08-02T01:52:53.044Z,23.00
2022-08-02T01:53:55.803Z,23.20
2022-08-02T01:55:18.895Z,23.10
2022-08-02T01:56:21.858Z,23.00
2022-08-02T01:57:25.604Z,23.10
2022-08-02T01:58:31.674Z,23.00
2022-08-02T01:59:35.091Z,23.10
2022-08-02T02:00:40.082Z,23.10
2022-08-02T02:01:43.364Z,23.10
2022-08-02T02:02:47.812Z,23.30
2022-08-02T02:03:50.256Z,23.10
2022-08-02T02:04:52.907Z,23.20
2022-08-02T02:05:57.433Z,23.20
2022-08-02T02:07:00.600Z,23.20
2022-08-02T02:08:05.492Z,23.20
2022-08-02T02:09:08.089Z,23.20
2022-08-02T02:10:15.555Z,23.30
2022-08-02T02:12:06.216Z,23.20
2022-08-02T02:12:40.174Z,23.20
2022-08-02T02:13:42.501Z,23.20
2022-08-02T02:14:51.828Z,23.20
2022-08-02T02:15:54.797Z,23.20
2022-08-02T02:16:59.306Z,23.20
2022-08-02T02:18:13.193Z,23.20
2022-08-02T02:19:21.216Z,23.20
2022-08-02T02:20:24.912Z,23.20
2022-08-02T02:21:26.590Z,23.20
2022-08-02T02:22:28.337Z,23.20
2022-08-02T02:23:30.180Z,23.20
2022-08-02T02:24:37.277Z,23.20
2022-08-02T02:25:46.523Z,23.20
2022-08-02T02:26:52.519Z,23.20
2022-08-02T02:28:12.006Z,23.20
2022-08-02T02:29:15.099Z,23.30
2022-08-02T02:30:17.540Z,23.20
2022-08-02T02:31:20.727Z,23.20
2022-08-02T02:32:23.922Z,23.20
2022-08-02T02:33:29.355Z,23.20
2022-08-02T02:34:38.015Z,23.20
2022-08-02T02:35:41.508Z,23.20
2022-08-02T02:36:49.583Z,23.10
2022-08-02T02:37:52.790Z,23.10
2022-08-02T02:38:57.185Z,23.10
2022-08-02T02:39:59.796Z,23.10
2022-08-02T02:41:04.331Z,23.10
2022-08-02T02:42:09.302Z,23.10
2022-08-02T02:43:13.894Z,23.10
2022-08-02T02:44:20.274Z,23.10
2022-08-02T02:45:22.709Z,23.10
2022-08-02T02:46:26.987Z,23.10
2022-08-02T02:47:40.482Z,23.10
2022-08-02T02:48:43.898Z,23.10
2022-08-02T02:49:48.141Z,23.10
2022-08-02T02:50:50.821Z,23.00
2022-08-02T02:51:54.170Z,23.00
2022-08-02T02:52:56.946Z,22.90
2022-08-02T02:54:32.813Z,22.90
2022-08-02T02:55:22.789Z,22.80
2022-08-02T02:56:25.092Z,22.80
2022-08-02T02:57:26.953Z,22.80
2022-08-02T02:58:29.221Z,22.80
2022-08-02T02:59:32.622Z,22.70
2022-08-02T03:00:53.553Z,22.70
2022-08-02T03:01:57.874Z,22.60
2022-08-02T03:03:00.028Z,22.60
2022-08-02T03:04:05.720Z,22.60
2022-08-02T03:05:08.700Z,22.60
2022-08-02T03:06:15.683Z,22.60
2022-08-02T03:07:17.867Z,22.60
2022-08-02T03:08:20.577Z,22.60
2022-08-02T03:09:22.746Z,22.70
2022-08-02T03:10:24.723Z,22.60
2022-08-02T03:11:29.932Z,22.50
2022-08-02T03:12:34.567Z,22.70
2022-08-02T03:13:37.758Z,22.50
2022-08-02T03:14:43.501Z,22.50
2022-08-02T03:15:46.830Z,22.40
2022-08-02T03:16:51.470Z,22.40
2022-08-02T03:17:53.456Z,22.40
2022-08-02T03:18:57.209Z,22.40
2022-08-02T03:19:59.564Z,22.30
2022-08-02T03:21:06.349Z,22.30
2022-08-02T03:22:08.413Z,22.30
2022-08-02T03:23:10.245Z,22.30
2022-08-02T03:24:13.246Z,22.20
2022-08-02T03:25:16.223Z,22.20
2022-08-02T03:26:17.981Z,22.20
2022-08-02T03:27:19.617Z,22.20
2022-08-02T03:28:21.368Z,22.10
2022-08-02T03:29:23.084Z,22.10
2022-08-02T03:30:27.641Z,22.10
2022-08-02T03:31:29.644Z,22.10
2022-08-02T03:32:36.595Z,22.10
2022-08-02T03:33:39.689Z,22.10
2022-08-02T03:34:41.499Z,22.10
2022-08-02T03:35:47.560Z,22.10
2022-08-02T03:36:53.503Z,22.00
2022-08-02T03:37:57.634Z,22.10
2022-08-02T03:39:01.605Z,22.00
2022-08-02T03:40:07.293Z,22.00
2022-08-02T03:41:11.737Z,22.00
2022-08-02T03:42:15.419Z,22.10
2022-08-02T03:43:17.879Z,22.00
2022-08-02T03:44:20.010Z,22.00
2022-08-02T03:45:22.432Z,22.00
2022-08-02T03:46:25.301Z,21.90
2022-08-02T03:47:28.168Z,21.90
2022-08-02T03:48:34.224Z,21.90
2022-08-02T03:49:37.419Z,21.90
2022-08-02T03:50:40.130Z,21.90
2022-08-02T03:51:41.901Z,21.90
2022-08-02T03:52:45.242Z,21.90
2022-08-02T03:53:49.006Z,21.90
2022-08-02T03:54:51.037Z,21.90
2022-08-02T03:55:55.834Z,21.90
2022-08-02T03:56:57.786Z,21.90
2022-08-02T03:57:59.619Z,21.90
2022-08-02T03:59:09.119Z,21.90
2022-08-02T04:00:22.336Z,21.90
2022-08-02T04:01:24.109Z,21.90
2022-08-02T04:02:25.856Z,21.90
2022-08-02T04:03:27.888Z,21.90
2022-08-02T04:04:30.913Z,21.90
2022-08-02T04:05:32.647Z,21.90
2022-08-02T04:06:34.450Z,21.90
2022-08-02T04:08:32.703Z,22.00
2022-08-02T04:08:58.325Z,21.80
2022-08-02T04:09:59.987Z,21.90
2022-08-02T04:11:20.541Z,21.90
2022-08-02T04:12:22.197Z,21.90
2022-08-02T04:13:31.792Z,21.90
2022-08-02T04:14:37.560Z,22.00
2022-08-02T04:15:39.973Z,21.90
2022-08-02T04:16:50.197Z,22.00
2022-08-02T04:17:56.892Z,21.90
2022-08-02T04:19:03.113Z,21.90
2022-08-02T04:20:11.166Z,21.90
2022-08-02T04:21:17.189Z,21.90
2022-08-02T04:22:30.170Z,22.00
2022-08-02T04:23:36.570Z,21.90
2022-08-02T04:24:41.423Z,22.00
2022-08-02T04:25:45.028Z,22.00
2022-08-02T04:26:49.879Z,21.90
2022-08-02T04:28:17.752Z,22.00
2022-08-02T04:29:15.849Z,21.90
2022-08-02T04:30:18.356Z,21.90
2022-08-02T04:31:20.691Z,22.20
2022-08-02T04:32:22.887Z,22.00
2022-08-02T04:33:25.515Z,22.00
2022-08-02T04:34:27.528Z,22.10
2022-08-02T04:35:29.698Z,22.00
2022-08-02T04:36:31.994Z,22.00
2022-08-02T04:37:36.610Z,22.10
2022-08-02T04:38:38.421Z,21.90
2022-08-02T04:39:44.004Z,22.00
2022-08-02T04:40:54.105Z,21.90
2022-08-02T04:41:57.896Z,21.90
2022-08-02T04:43:10.345Z,21.90
2022-08-02T04:44:13.306Z,21.90
2022-08-02T04:45:17.188Z,22.00
2022-08-02T04:46:19.122Z,21.90
2022-08-02T04:48:01.597Z,21.90
2022-08-02T04:48:45.764Z,21.90
2022-08-02T04:49:47.506Z,21.90
2022-08-02T04:50:49.574Z,21.90
2022-08-02T04:51:51.440Z,22.10
2022-08-02T04:52:53.283Z,21.90
2022-08-02T04:53:55.172Z,21.90
2022-08-02T04:55:08.223Z,22.00
2022-08-02T04:56:10.155Z,22.00
2022-08-02T04:57:30.853Z,22.10
2022-08-02T04:58:40.872Z,22.00
2022-08-02T04:59:42.901Z,22.10
2022-08-02T05:00:45.171Z,22.00
2022-08-02T05:01:46.874Z,22.00
2022-08-02T05:02:49.058Z,22.10
2022-08-02T05:03:51.181Z,22.00
2022-08-02T05:04:53.029Z,22.20
2022-08-02T05:05:55.180Z,22.00
2022-08-02T05:06:57.111Z,22.00
2022-08-02T05:07:59.287Z,22.20
2022-08-02T05:09:01.020Z,22.10
2022-08-02T05:10:03.047Z,22.20
2022-08-02T05:11:05.626Z,22.10
2022-08-02T05:12:07.867Z,22.20
2022-08-02T05:13:09.710Z,22.20
2022-08-02T05:14:11.517Z,22.20
2022-08-02T05:15:16.544Z,22.30
2022-08-02T05:16:18.340Z,22.20
2022-08-02T05:17:20.277Z,22.30
2022-08-02T05:18:21.932Z,22.30
2022-08-02T05:19:23.566Z,22.30
2022-08-02T05:20:25.261Z,22.30
2022-08-02T05:21:26.998Z,22.00
2022-08-02T05:22:28.759Z,22.20
2022-08-02T05:23:30.438Z,22.20
2022-08-02T05:24:33.631Z,22.20
2022-08-02T05:25:35.389Z,22.20
2022-08-02T05:26:37.034Z,22.30
2022-08-02T05:27:38.838Z,22.20
2022-08-02T05:28:40.543Z,22.30
2022-08-02T05:29:51.241Z,22.20
2022-08-02T05:30:55.792Z,22.20
2022-08-02T05:31:57.462Z,22.20
2022-08-02T05:32:59.147Z,22.20
2022-08-02T05:34:01.241Z,22.30
2022-08-02T05:35:03.322Z,22.30
2022-08-02T05:36:05.335Z,22.30
2022-08-02T05:37:09.766Z,22.30
2022-08-02T05:38:11.786Z,22.40
2022-08-02T05:39:18.938Z,22.40
2022-08-02T05:40:25.515Z,22.50
2022-08-02T05:41:27.939Z,22.50
2022-08-02T05:42:32.691Z,22.60
2022-08-02T05:43:34.391Z,22.60
2022-08-02T05:44:36.702Z,22.60
2022-08-02T05:45:38.353Z,22.60
2022-08-02T05:46:40.071Z,22.60
2022-08-02T05:47:42.186Z,22.70
2022-08-02T05:48:44.990Z,22.70
2022-08-02T05:49:48.040Z,22.80
2022-08-02T05:50:55.947Z,22.80
2022-08-02T05:52:12.201Z,22.80
2022-08-02T05:53:50.577Z,22.90
2022-08-02T05:55:15.298Z,23.00
2022-08-02T05:56:18.076Z,23.00
2022-08-02T05:57:30.484Z,23.00
2022-08-02T05:58:43.214Z,23.10
2022-08-02T06:00:11.289Z,23.10
2022-08-02T06:01:16.336Z,23.20
2022-08-02T06:02:44.543Z,23.30
2022-08-02T06:03:52.166Z,23.40
2022-08-02T06:05:11.163Z,23.40
2022-08-02T06:06:14.895Z,23.50
2022-08-02T06:07:20.654Z,23.60
2022-08-02T06:08:28.261Z,23.60
2022-08-02T06:09:30.605Z,23.70
2022-08-02T06:10:34.105Z,23.70
2022-08-02T06:11:39.117Z,23.80
2022-08-02T06:12:54.288Z,23.90
2022-08-02T06:13:56.443Z,24.00
2022-08-02T06:15:00.103Z,24.00
2022-08-02T06:16:03.112Z,24.00
2022-08-02T06:17:06.368Z,24.10
2022-08-02T06:20:25.930Z,24.30
2022-08-02T06:22:33.088Z,24.40
2022-08-02T06:22:52.201Z,24.40
2022-08-02T06:23:58.657Z,24.50
2022-08-02T06:25:03.466Z,24.50
2022-08-02T06:26:08.016Z,24.50
2022-08-02T06:27:10.388Z,24.50
2022-08-02T06:28:15.137Z,24.50
2022-08-02T06:29:17.339Z,24.50
2022-08-02T06:30:19.186Z,24.50
2022-08-02T06:31:20.981Z,24.50
2022-08-02T06:32:23.239Z,24.50
2022-08-02T06:33:25.286Z,24.50
2022-08-02T06:34:26.960Z,24.60
2022-08-02T06:35:57.301Z,24.60
2022-08-02T06:37:13.988Z,24.60
2022-08-02T06:38:24.224Z,24.60
2022-08-02T06:39:34.921Z,24.60
2022-08-02T06:40:49.530Z,24.60
2022-08-02T06:41:55.948Z,24.60
2022-08-02T06:43:13.918Z,24.50
2022-08-02T06:45:38.442Z,24.50
2022-08-02T06:47:11.272Z,24.50
2022-08-02T06:48:03.485Z,24.40
2022-08-02T06:49:05.713Z,24.40
2022-08-02T06:50:08.158Z,24.30
2022-08-02T06:51:10.349Z,24.30
2022-08-02T06:52:12.624Z,24.30
2022-08-02T06:53:14.664Z,24.30
2022-08-02T06:54:21.942Z,24.30
2022-08-02T06:55:23.843Z,24.40
2022-08-02T06:56:25.844Z,24.30
2022-08-02T06:57:29.011Z,24.20
2022-08-02T06:58:31.132Z,24.20
2022-08-02T06:59:32.917Z,24.30
2022-08-02T07:00:36.951Z,24.30
2022-08-02T07:01:39.248Z,24.30
2022-08-02T07:02:41.303Z,24.20
2022-08-02T07:03:46.181Z,24.30
2022-08-02T07:04:48.234Z,24.30
2022-08-02T07:05:49.943Z,24.30
2022-08-02T07:06:52.199Z,24.20
2022-08-02T07:07:54.040Z,24.20
2022-08-02T07:09:19.590Z,24.20
2022-08-02T07:10:18.870Z,24.20
2022-08-02T07:11:20.896Z,24.10
2022-08-02T07:12:22.811Z,24.30
2022-08-02T07:13:24.660Z,24.10
2022-08-02T07:14:26.441Z,24.20
2022-08-02T07:15:28.253Z,24.20
2022-08-02T07:16:30.068Z,24.20
2022-08-02T07:17:31.934Z,24.40
2022-08-02T07:18:35.002Z,24.30
2022-08-02T07:19:37.950Z,24.40
2022-08-02T07:20:40.761Z,24.40
2022-08-02T07:21:56.328Z,24.50
2022-08-02T07:23:02.370Z,24.60
2022-08-02T07:24:04.628Z,24.60
2022-08-02T07:25:07.379Z,24.60
2022-08-02T07:26:09.600Z,24.70
2022-08-02T07:27:12.542Z,24.70
2022-08-02T07:28:24.080Z,24.70
2022-08-02T07:29:26.548Z,24.70
2022-08-02T07:30:32.940Z,24.60
2022-08-02T07:31:35.866Z,24.60
2022-08-02T07:32:37.925Z,24.60
2022-08-02T07:33:46.828Z,24.70
2022-08-02T07:34:54.201Z,24.80
2022-08-02T07:35:58.654Z,24.90
2022-08-02T07:37:04.455Z,24.90
2022-08-02T07:38:09.043Z,24.90
2022-08-02T07:39:11.995Z,24.90
2022-08-02T07:40:20.208Z,25.00
2022-08-02T07:41:22.948Z,25.00
2022-08-02T07:42:25.051Z,25.10
2022-08-02T07:43:26.919Z,25.00
2022-08-02T07:44:36.121Z,25.00
2022-08-02T07:45:55.774Z,25.10
2022-08-02T07:47:00.309Z,25.10
2022-08-02T07:48:02.290Z,25.20
2022-08-02T07:49:05.708Z,25.20
2022-08-02T07:50:08.745Z,25.30
2022-08-02T07:51:12.985Z,25.30
2022-08-02T07:52:19.028Z,25.40
2022-08-02T07:53:20.981Z,25.40
2022-08-02T07:54:43.018Z,25.40
2022-08-02T07:55:44.776Z,25.40
2022-08-02T07:56:46.990Z,25.40
2022-08-02T07:57:53.333Z,25.40
2022-08-02T07:58:55.373Z,25.50
2022-08-02T07:59:57.148Z,25.60
2022-08-02T08:00:58.902Z,25.60
2022-08-02T08:02:02.923Z,25.70
2022-08-02T08:03:05.631Z,25.70
2022-08-02T08:04:07.630Z,25.80
2022-08-02T08:05:12.712Z,25.80
2022-08-02T08:06:15.000Z,26.00
2022-08-02T08:07:18.085Z,25.90
2022-08-02T08:08:20.302Z,25.90
2022-08-02T08:09:22.527Z,26.00
2022-08-02T08:10:24.755Z,26.00
2022-08-02T08:11:27.589Z,26.00
2022-08-02T08:12:30.735Z,26.00
2022-08-02T08:13:32.655Z,26.00
2022-08-02T08:14:35.653Z,26.00
2022-08-02T08:15:38.402Z,26.10
2022-08-02T08:16:40.264Z,26.10
2022-08-02T08:17:42.025Z,26.10
2022-08-02T08:18:44.388Z,26.20
2022-08-02T08:19:51.223Z,26.20
2022-08-02T08:20:53.633Z,26.20
2022-08-02T08:21:56.656Z,26.20
2022-08-02T08:22:59.562Z,26.30
2022-08-02T08:24:01.669Z,26.30
2022-08-02T08:25:04.212Z,26.30
2022-08-02T08:26:10.764Z,26.40
2022-08-02T08:27:15.687Z,26.40
2022-08-02T08:28:17.449Z,26.40
2022-08-02T08:29:19.264Z,26.60
2022-08-02T08:30:22.138Z,26.40
2022-08-02T08:31:24.166Z,26.40
2022-08-02T08:32:27.194Z,26.40
2022-08-02T08:33:29.249Z,26.40
2022-08-02T08:34:31.538Z,26.50
2022-08-02T08:35:33.389Z,26.50
2022-08-02T08:36:36.906Z,26.50
2022-08-02T08:37:39.430Z,26.70
2022-08-02T08:38:41.341Z,26.60
2022-08-02T08:39:56.963Z,26.70
2022-08-02T08:41:00.473Z,26.60
2022-08-02T08:42:02.631Z,26.70
2022-08-02T08:43:05.182Z,26.70
2022-08-02T08:44:11.358Z,26.70
2022-08-02T08:45:13.723Z,26.70
2022-08-02T08:46:29.587Z,26.80
2022-08-02T08:47:42.232Z,26.70
2022-08-02T08:48:50.093Z,26.70
2022-08-02T08:49:54.990Z,26.70
2022-08-02T08:51:00.850Z,26.70
2022-08-02T08:52:06.107Z,26.60
2022-08-02T08:53:12.325Z,26.60
2022-08-02T08:54:17.595Z,26.60
2022-08-02T08:55:25.238Z,26.50
2022-08-02T08:56:36.310Z,26.50
2022-08-02T08:57:42.607Z,26.50
2022-08-02T08:58:47.501Z,26.60
2022-08-02T08:59:49.524Z,26.60
2022-08-02T09:00:51.619Z,26.60
2022-08-02T09:01:56.438Z,26.70
2022-08-02T09:03:00.740Z,26.70
2022-08-02T09:04:03.003Z,26.80
2022-08-02T09:05:05.158Z,26.80
2022-08-02T09:06:07.251Z,26.90
2022-08-02T09:07:08.954Z,26.90
2022-08-02T09:08:16.330Z,26.90
2022-08-02T09:09:19.876Z,26.90
2022-08-02T09:10:41.795Z,26.90
2022-08-02T09:11:45.236Z,26.90
2022-08-02T09:12:50.339Z,26.90
2022-08-02T09:13:58.534Z,27.00
2022-08-02T09:15:05.354Z,27.00
2022-08-02T09:16:12.870Z,27.00
2022-08-02T09:17:16.456Z,27.10
2022-08-02T09:18:18.676Z,27.10
2022-08-02T09:19:27.341Z,27.30
2022-08-02T09:20:30.885Z,27.20
2022-08-02T09:21:37.621Z,27.30
2022-08-02T09:22:39.440Z,27.30
2022-08-02T09:23:46.378Z,27.30
2022-08-02T09:24:51.653Z,27.30
2022-08-02T09:25:59.434Z,27.30
2022-08-02T09:27:17.735Z,27.50
2022-08-02T09:28:19.528Z,27.40
2022-08-02T09:29:24.876Z,27.40
2022-08-02T09:30:31.283Z,27.40
2022-08-02T09:31:42.727Z,27.40
2022-08-02T09:32:52.776Z,27.40
2022-08-02T09:34:02.050Z,27.30
2022-08-02T09:35:05.724Z,27.30
2022-08-02T09:36:08.599Z,27.20
2022-08-02T09:37:28.381Z,27.20
2022-08-02T09:38:31.324Z,27.20
2022-08-02T09:39:46.589Z,27.20
2022-08-02T09:40:49.696Z,27.30
2022-08-02T09:41:51.488Z,27.30
2022-08-02T09:43:01.413Z,27.40
2022-08-02T09:44:10.676Z,27.50
2022-08-02T09:45:15.908Z,27.50
2022-08-02T09:46:30.396Z,27.70
2022-08-02T09:47:37.196Z,27.80
2022-08-02T09:48:54.738Z,27.80
2022-08-02T09:49:59.388Z,27.90
2022-08-02T09:51:01.882Z,28.10
2022-08-02T09:52:05.799Z,27.90
2022-08-02T09:53:15.748Z,28.00
2022-08-02T09:54:25.772Z,28.00
2022-08-02T09:55:27.593Z,27.90
2022-08-02T09:56:49.897Z,28.00
2022-08-02T09:57:53.141Z,28.00
2022-08-02T09:58:57.022Z,28.10
2022-08-02T10:00:01.895Z,28.10
2022-08-02T10:01:05.349Z,28.10
2022-08-02T10:02:13.771Z,28.10
2022-08-02T10:03:22.104Z,28.10
2022-08-02T10:04:34.209Z,28.10
2022-08-02T10:06:02.389Z,28.10
2022-08-02T10:07:06.128Z,28.10
2022-08-02T10:08:09.563Z,28.10
2022-08-02T10:09:15.026Z,28.00
2022-08-02T10:10:17.108Z,28.10
2022-08-02T10:11:21.280Z,28.10
2022-08-02T10:12:23.627Z,28.10
2022-08-02T10:13:26.842Z,28.10
2022-08-02T10:14:29.103Z,28.10
2022-08-02T10:15:31.958Z,28.10
2022-08-02T10:16:40.069Z,28.20
2022-08-02T10:17:43.733Z,28.10
2022-08-02T10:18:45.754Z,28.30
2022-08-02T10:20:02.467Z,28.20
2022-08-02T10:21:10.389Z,28.20
2022-08-02T10:22:21.168Z,28.20
2022-08-02T10:23:26.922Z,28.20
2022-08-02T10:24:38.327Z,28.30
2022-08-02T10:25:42.417Z,28.10
2022-08-02T10:26:48.724Z,28.10
2022-08-02T10:28:04.752Z,28.00
2022-08-02T10:29:09.825Z,28.10
2022-08-02T10:30:11.960Z,28.00
2022-08-02T10:31:19.228Z,28.00
2022-08-02T10:32:30.160Z,28.00
2022-08-02T10:33:35.596Z,28.00
2022-08-02T10:34:45.366Z,28.00
2022-08-02T10:36:06.849Z,27.90
2022-08-02T10:37:11.524Z,28.00
2022-08-02T10:38:20.755Z,28.10
2022-08-02T10:39:22.636Z,28.00
2022-08-02T10:40:26.707Z,28.10
2022-08-02T10:41:45.243Z,28.10
2022-08-02T10:42:50.528Z,28.30
2022-08-02T10:43:54.123Z,28.30
2022-08-02T10:45:15.447Z,28.40
2022-08-02T10:46:35.689Z,28.40
2022-08-02T10:47:37.597Z,28.40
2022-08-02T10:49:38.795Z,28.50
2022-08-02T10:50:53.068Z,28.60
2022-08-02T10:52:00.855Z,28.70
2022-08-02T10:53:29.236Z,28.70
2022-08-02T10:54:56.424Z,28.80
2022-08-02T10:56:00.814Z,28.70
2022-08-02T10:57:10.615Z,28.90
2022-08-02T10:58:26.084Z,28.80
2022-08-02T10:59:37.031Z,28.90
2022-08-02T11:00:38.926Z,28.90
2022-08-02T11:01:44.567Z,29.00
2022-08-02T11:02:52.952Z,29.00
2022-08-02T11:03:59.808Z,29.10
2022-08-02T11:05:07.508Z,29.20
2022-08-02T11:06:25.234Z,29.20
2022-08-02T11:07:50.975Z,29.20
2022-08-02T11:09:33.959Z,29.30
2022-08-02T11:10:39.450Z,29.40
2022-08-02T11:12:02.290Z,29.40
2022-08-02T11:13:14.266Z,29.50
2022-08-02T11:14:16.371Z,29.50
2022-08-02T11:15:19.285Z,29.60
2022-08-02T11:16:22.241Z,29.70
2022-08-02T11:17:25.072Z,29.80
2022-08-02T11:18:53.405Z,29.80
2022-08-02T11:20:14.055Z,29.90
2022-08-02T11:21:25.670Z,29.90
2022-08-02T11:22:27.434Z,30.00
2022-08-02T11:23:46.099Z,30.00
2022-08-02T11:24:47.968Z,30.00
2022-08-02T11:26:03.667Z,30.00
2022-08-02T11:27:18.967Z,30.00
2022-08-02T11:28:25.763Z,30.10
2022-08-02T11:29:38.221Z,30.10
2022-08-02T11:30:40.686Z,30.30
2022-08-02T11:31:46.261Z,30.20
2022-08-02T11:32:48.936Z,30.20
2022-08-02T11:33:51.386Z,30.40
2022-08-02T11:34:55.002Z,30.30
2022-08-02T11:36:02.596Z,30.30
2022-08-02T11:37:04.719Z,30.30
2022-08-02T11:38:17.755Z,30.30
2022-08-02T11:39:24.026Z,30.40
2022-08-02T11:40:37.748Z,30.40
2022-08-02T11:41:47.622Z,30.40
2022-08-02T11:42:54.146Z,30.40
2022-08-02T11:43:58.607Z,30.40
2022-08-02T11:45:00.828Z,30.50
2022-08-02T11:46:04.595Z,30.60
2022-08-02T11:47:10.368Z,30.60
2022-08-02T11:48:13.500Z,30.60
2022-08-02T11:49:18.143Z,30.60
2022-08-02T11:50:30.437Z,30.60
2022-08-02T11:51:32.474Z,30.70
2022-08-02T11:52:35.688Z,30.70
2022-08-02T11:53:51.490Z,30.70
2022-08-02T11:54:53.351Z,30.80
2022-08-02T11:55:57.595Z,31.00
2022-08-02T11:57:21.242Z,31.00
2022-08-02T11:58:23.418Z,30.80
2022-08-02T11:59:25.279Z,30.80
2022-08-02T12:00:30.596Z,30.80
2022-08-02T12:01:36.730Z,30.80
2022-08-02T12:02:48.598Z,30.80
2022-08-02T12:03:50.703Z,30.90
2022-08-02T12:04:58.855Z,30.90
2022-08-02T12:06:06.484Z,30.90
2022-08-02T12:07:12.753Z,30.90
2022-08-02T12:08:18.998Z,30.90
2022-08-02T12:09:25.276Z,31.00
2022-08-02T12:10:27.174Z,31.00
2022-08-02T12:11:28.928Z,31.00
2022-08-02T12:12:52.156Z,31.00
2022-08-02T12:13:57.713Z,31.10
2022-08-02T12:14:59.469Z,31.10
2022-08-02T12:16:31.164Z,31.10
2022-08-02T12:17:51.757Z,31.20
2022-08-02T12:19:12.374Z,31.30
2022-08-02T12:20:17.411Z,31.20
2022-08-02T12:21:25.174Z,31.20
2022-08-02T12:22:28.118Z,31.20
2022-08-02T12:23:30.277Z,31.10
2022-08-02T12:24:32.111Z,31.10
2022-08-02T12:25:35.636Z,31.00
2022-08-02T12:26:48.156Z,31.00
2022-08-02T12:27:53.249Z,31.10
2022-08-02T12:28:57.916Z,31.00
2022-08-02T12:30:03.755Z,31.10
2022-08-02T12:31:07.152Z,31.10
2022-08-02T12:32:10.346Z,31.10
2022-08-02T12:33:13.423Z,31.10
2022-08-02T12:34:18.371Z,31.20
2022-08-02T12:35:26.010Z,31.20
2022-08-02T12:36:29.978Z,31.20
2022-08-02T12:37:32.162Z,31.30
2022-08-02T12:38:33.956Z,31.50
2022-08-02T12:39:44.032Z,31.40
2022-08-02T12:40:49.966Z,31.40
2022-08-02T12:41:57.729Z,31.50
2022-08-02T12:43:07.908Z,31.60
2022-08-02T12:44:17.090Z,31.60
2022-08-02T12:45:21.855Z,31.80
2022-08-02T12:46:25.249Z,31.90
2022-08-02T12:47:35.802Z,31.90
2022-08-02T12:49:02.358Z,32.00
2022-08-02T12:50:34.852Z,32.10
2022-08-02T12:51:56.689Z,32.30
2022-08-02T12:53:16.739Z,32.30
2022-08-02T12:54:31.028Z,32.40
2022-08-02T12:55:59.789Z,32.50
2022-08-02T12:56:56.151Z,32.50
2022-08-02T12:58:03.263Z,32.60
2022-08-02T12:59:05.772Z,32.50
2022-08-02T13:00:09.947Z,32.50
2022-08-02T13:01:14.149Z,32.50
2022-08-02T13:02:18.152Z,32.50
2022-08-02T13:04:12.152Z,32.50
2022-08-02T13:04:50.108Z,32.70
2022-08-02T13:05:57.105Z,32.80
2022-08-02T13:07:05.948Z,32.90
2022-08-02T13:08:08.120Z,33.10
2022-08-02T13:09:15.065Z,33.10
2022-08-02T13:10:17.274Z,33.20
2022-08-02T13:11:19.057Z,33.30
2022-08-02T13:12:21.003Z,33.40
2022-08-02T13:13:22.869Z,33.50
2022-08-02T13:14:24.607Z,33.60
2022-08-02T13:15:50.281Z,33.70
2022-08-02T13:16:49.342Z,33.70
2022-08-02T13:17:51.193Z,33.80
2022-08-02T13:18:53.097Z,34.00
2022-08-02T13:19:54.826Z,34.10
2022-08-02T13:20:56.748Z,34.10
2022-08-02T13:22:03.904Z,34.20
2022-08-02T13:23:05.901Z,34.30
2022-08-02T13:24:33.133Z,34.40
2022-08-02T13:25:32.409Z,34.50
2022-08-02T13:26:34.315Z,34.50
2022-08-02T13:27:38.003Z,34.60
2022-08-02T13:28:43.038Z,34.60
2022-08-02T13:29:45.074Z,34.70
2022-08-02T13:30:49.065Z,34.70
2022-08-02T13:31:50.926Z,34.80
2022-08-02T13:32:52.780Z,34.80
2022-08-02T13:33:55.909Z,35.00
2022-08-02T13:34:58.736Z,34.90
2022-08-02T13:36:00.812Z,34.90
2022-08-02T13:37:03.271Z,34.90
2022-08-02T13:38:06.646Z,35.00
2022-08-02T13:39:09.712Z,35.10
2022-08-02T13:40:21.839Z,35.10
2022-08-02T13:41:24.266Z,35.10
2022-08-02T13:42:26.099Z,35.00
2022-08-02T13:43:54.777Z,34.80
2022-08-02T13:44:50.291Z,34.60
2022-08-02T13:45:52.195Z,34.50
2022-08-02T13:46:53.946Z,34.30
2022-08-02T13:48:04.349Z,34.20
2022-08-02T13:49:08.498Z,34.10
2022-08-02T13:50:17.534Z,34.00
2022-08-02T13:51:19.410Z,33.80
2022-08-02T13:52:21.217Z,33.60
2022-08-02T13:53:23.479Z,33.60
2022-08-02T13:54:25.257Z,33.40
2022-08-02T13:55:28.362Z,33.30
2022-08-02T13:56:35.352Z,33.20
2022-08-02T13:57:37.958Z,33.20
2022-08-02T13:58:40.355Z,33.20
2022-08-02T13:59:56.191Z,33.20
2022-08-02T14:01:03.336Z,33.30
2022-08-02T14:02:05.644Z,33.40
2022-08-02T14:03:12.248Z,33.40
2022-08-02T14:04:15.141Z,33.40
2022-08-02T14:05:18.699Z,33.50
2022-08-02T14:06:40.430Z,33.50
2022-08-02T14:07:42.197Z,33.60
2022-08-02T14:08:43.935Z,33.60
2022-08-02T14:09:45.890Z,33.70
2022-08-02T14:10:50.362Z,33.70
2022-08-02T14:11:53.130Z,33.60
2022-08-02T14:12:56.494Z,33.60
2022-08-02T14:13:58.898Z,33.50
2022-08-02T14:15:00.964Z,33.40
2022-08-02T14:16:02.898Z,33.30
2022-08-02T14:17:04.759Z,33.30
2022-08-02T14:18:06.562Z,33.20
2022-08-02T14:19:16.119Z,33.10